createdAt,value
2022-10-31T00:00:22.747Z,1012.91
2022-10-31T00:01:22.741Z,1012.91
2022-10-31T00:02:22.780Z,1012.94
2022-10-31T00:03:22.690Z,1012.92
2022-10-31T00:04:22.677Z,1012.92
2022-10-31T00:05:22.658Z,1012.88
2022-10-31T00:06:22.669Z,1012.92
2022-10-31T00:07:22.649Z,1012.89
2022-10-31T00:08:22.675Z,1012.95
2022-10-31T00:09:22.607Z,1012.96
2022-10-31T00:10:22.592Z,1012.95
2022-10-31T00:11:22.593Z,1012.93
2022-10-31T00:12:22.576Z,1012.99
2022-10-31T00:14:22.568Z,1012.97
2022-10-31T00:15:22.558Z,1012.95
2022-10-31T00:16:22.532Z,1012.94
2022-10-31T00:17:22.520Z,1012.94
2022-10-31T00:18:22.499Z,1012.97
2022-10-31T00:19:22.506Z,1012.94
2022-10-31T00:20:22.472Z,1013.00
2022-10-31T00:21:22.475Z,1013.00
2022-10-31T00:22:22.451Z,1013.00
2022-10-31T00:23:22.461Z,1013.00
2022-10-31T00:24:22.432Z,1013.02
2022-10-31T00:25:22.431Z,1013.09
2022-10-31T00:26:22.408Z,1013.07
2022-10-31T00:27:22.397Z,1013.08
2022-10-31T00:28:22.406Z,1013.01
2022-10-31T00:29:22.377Z,1012.99
2022-10-31T00:30:22.395Z,1013.02
2022-10-31T00:31:22.374Z,1013.02
2022-10-31T00:32:22.342Z,1013.00
2022-10-31T00:33:22.331Z,1013.04
2022-10-31T00:34:22.321Z,1012.99
2022-10-31T00:35:22.494Z,1013.05
2022-10-31T00:36:22.335Z,1013.02
2022-10-31T00:37:22.299Z,1013.02
2022-10-31T00:38:22.279Z,1013.10
2022-10-31T00:39:22.288Z,1013.12
2022-10-31T00:40:22.263Z,1013.10
2022-10-31T00:41:22.259Z,1013.09
2022-10-31T00:42:22.250Z,1013.09
2022-10-31T00:43:22.224Z,1013.15
2022-10-31T00:44:22.205Z,1013.17
2022-10-31T00:45:22.199Z,1013.14
2022-10-31T00:46:22.191Z,1013.17
2022-10-31T00:47:22.187Z,1013.22
2022-10-31T00:48:22.171Z,1013.16
2022-10-31T00:49:22.156Z,1013.16
2022-10-31T00:50:22.144Z,1013.18
2022-10-31T00:51:22.130Z,1013.17
2022-10-31T00:52:22.134Z,1013.18
2022-10-31T00:53:22.117Z,1013.18
2022-10-31T00:54:22.108Z,1013.20
2022-10-31T00:55:22.114Z,1013.24
2022-10-31T00:56:22.078Z,1013.23
2022-10-31T00:57:22.076Z,1013.28
2022-10-31T00:58:22.090Z,1013.33
2022-10-31T00:59:22.053Z,1013.29
2022-10-31T01:00:22.028Z,1013.30
2022-10-31T01:01:22.201Z,1013.30
2022-10-31T01:02:22.202Z,1013.25
2022-10-31T01:03:22.008Z,1013.27
2022-10-31T01:04:22.013Z,1013.25
2022-10-31T01:05:21.978Z,1013.25
2022-10-31T01:06:21.966Z,1013.28
2022-10-31T01:07:21.951Z,1013.31
2022-10-31T01:08:21.946Z,1013.30
2022-10-31T01:09:21.938Z,1013.30
2022-10-31T01:10:21.932Z,1013.35
2022-10-31T01:11:21.939Z,1013.30
2022-10-31T01:12:21.918Z,1013.35
2022-10-31T01:14:21.884Z,1013.28
2022-10-31T01:15:21.907Z,1013.31
2022-10-31T01:16:21.869Z,1013.34
2022-10-31T01:17:21.854Z,1013.34
2022-10-31T01:18:21.850Z,1013.33
2022-10-31T01:19:21.832Z,1013.35
2022-10-31T01:20:21.813Z,1013.36
2022-10-31T01:21:21.827Z,1013.31
2022-10-31T01:22:21.790Z,1013.34
2022-10-31T01:23:21.778Z,1013.31
2022-10-31T01:24:21.779Z,1013.33
2022-10-31T01:25:21.778Z,1013.34
2022-10-31T01:26:21.753Z,1013.37
2022-10-31T01:27:21.776Z,1013.34
2022-10-31T01:28:21.781Z,1013.29
2022-10-31T01:29:21.711Z,1013.32
2022-10-31T01:30:21.713Z,1013.26
2022-10-31T01:31:21.719Z,1013.31
2022-10-31T01:32:21.681Z,1013.29
2022-10-31T01:33:21.678Z,1013.28
2022-10-31T01:34:21.667Z,1013.30
2022-10-31T01:35:21.659Z,1013.32
2022-10-31T01:36:21.649Z,1013.27
2022-10-31T01:37:21.633Z,1013.27
2022-10-31T01:38:21.624Z,1013.30
2022-10-31T01:39:21.629Z,1013.30
2022-10-31T01:40:21.596Z,1013.33
2022-10-31T01:41:21.594Z,1013.32
2022-10-31T01:42:21.590Z,1013.33
2022-10-31T01:44:21.557Z,1013.32
2022-10-31T01:45:21.606Z,1013.34
2022-10-31T01:46:21.532Z,1013.31
2022-10-31T01:47:21.526Z,1013.32
2022-10-31T01:48:21.525Z,1013.31
2022-10-31T01:49:21.526Z,1013.26
2022-10-31T01:50:21.494Z,1013.24
2022-10-31T01:51:21.481Z,1013.27
2022-10-31T01:52:21.480Z,1013.27
2022-10-31T01:53:25.892Z,1013.31
2022-10-31T01:54:22.449Z,1013.35
2022-10-31T01:55:22.580Z,1013.38
2022-10-31T01:56:21.421Z,1013.46
2022-10-31T01:57:21.417Z,1013.45
2022-10-31T01:58:21.422Z,1013.46
2022-10-31T01:59:21.415Z,1013.45
2022-10-31T02:00:21.383Z,1013.51
2022-10-31T02:01:21.562Z,1013.52
2022-10-31T02:02:21.527Z,1013.50
2022-10-31T02:03:21.340Z,1013.49
2022-10-31T02:04:21.369Z,1013.42
2022-10-31T02:05:21.323Z,1013.39
2022-10-31T02:06:21.313Z,1013.45
2022-10-31T02:07:21.314Z,1013.42
2022-10-31T02:08:21.297Z,1013.46
2022-10-31T02:09:21.281Z,1013.45
2022-10-31T02:10:21.292Z,1013.45
2022-10-31T02:11:21.257Z,1013.44
2022-10-31T02:12:21.264Z,1013.43
2022-10-31T02:13:21.297Z,1013.44
2022-10-31T02:14:21.226Z,1013.45
2022-10-31T02:15:21.246Z,1013.43
2022-10-31T02:16:21.212Z,1013.46
2022-10-31T02:17:21.199Z,1013.49
2022-10-31T02:18:21.191Z,1013.47
2022-10-31T02:19:21.182Z,1013.44
2022-10-31T02:20:21.185Z,1013.47
2022-10-31T02:21:21.154Z,1013.46
2022-10-31T02:22:21.143Z,1013.46
2022-10-31T02:23:21.126Z,1013.48
2022-10-31T02:24:21.114Z,1013.46
2022-10-31T02:25:21.121Z,1013.45
2022-10-31T02:26:21.132Z,1013.43
2022-10-31T02:27:21.103Z,1013.42
2022-10-31T02:28:21.087Z,1013.42
2022-10-31T02:29:21.072Z,1013.46
2022-10-31T02:30:21.065Z,1013.39
2022-10-31T02:31:21.060Z,1013.39
2022-10-31T02:32:21.058Z,1013.40
2022-10-31T02:33:21.027Z,1013.40
2022-10-31T02:34:21.016Z,1013.38
2022-10-31T02:35:21.000Z,1013.33
2022-10-31T02:36:20.983Z,1013.39
2022-10-31T02:37:20.975Z,1013.41
2022-10-31T02:38:20.986Z,1013.37
2022-10-31T02:39:20.961Z,1013.40
2022-10-31T02:40:20.958Z,1013.39
2022-10-31T02:41:20.952Z,1013.42
2022-10-31T02:42:20.944Z,1013.43
2022-10-31T02:43:20.920Z,1013.44
2022-10-31T02:44:20.906Z,1013.42
2022-10-31T02:45:20.889Z,1013.43
2022-10-31T02:46:20.884Z,1013.47
2022-10-31T02:47:20.921Z,1013.48
2022-10-31T02:48:20.855Z,1013.50
2022-10-31T02:49:20.847Z,1013.49
2022-10-31T02:50:20.842Z,1013.48
2022-10-31T02:51:20.829Z,1013.51
2022-10-31T02:52:20.819Z,1013.54
2022-10-31T02:53:20.814Z,1013.53
2022-10-31T02:54:20.792Z,1013.53
2022-10-31T02:55:20.788Z,1013.54
2022-10-31T02:56:20.776Z,1013.56
2022-10-31T02:57:20.780Z,1013.58
2022-10-31T02:58:20.774Z,1013.58
2022-10-31T02:59:20.743Z,1013.62
2022-10-31T03:00:20.725Z,1013.62
2022-10-31T03:01:20.885Z,1013.57
2022-10-31T03:02:20.802Z,1013.65
2022-10-31T03:03:20.733Z,1013.58
2022-10-31T03:04:20.691Z,1013.64
2022-10-31T03:05:20.672Z,1013.61
2022-10-31T03:06:20.670Z,1013.64
2022-10-31T03:07:20.657Z,1013.60
2022-10-31T03:08:20.657Z,1013.64
2022-10-31T03:09:20.636Z,1013.66
2022-10-31T03:10:20.630Z,1013.62
2022-10-31T03:11:20.617Z,1013.64
2022-10-31T03:12:20.611Z,1013.65
2022-10-31T03:13:20.659Z,1013.64
2022-10-31T03:14:20.582Z,1013.59
2022-10-31T03:15:20.563Z,1013.67
2022-10-31T03:16:20.553Z,1013.66
2022-10-31T03:17:20.550Z,1013.69
2022-10-31T03:18:20.553Z,1013.68
2022-10-31T03:19:20.568Z,1013.70
2022-10-31T03:20:20.519Z,1013.72
2022-10-31T03:21:20.509Z,1013.72
2022-10-31T03:22:20.513Z,1013.74
2022-10-31T03:23:20.483Z,1013.74
2022-10-31T03:24:20.464Z,1013.77
2022-10-31T03:25:20.476Z,1013.76
2022-10-31T03:26:20.456Z,1013.78
2022-10-31T03:27:20.441Z,1013.82
2022-10-31T03:28:20.432Z,1013.80
2022-10-31T03:29:20.419Z,1013.79
2022-10-31T03:30:20.399Z,1013.83
2022-10-31T03:31:20.411Z,1013.81
2022-10-31T03:32:20.395Z,1013.84
2022-10-31T03:33:20.367Z,1013.85
2022-10-31T03:34:20.360Z,1013.87
2022-10-31T03:35:20.369Z,1013.91
2022-10-31T03:36:20.351Z,1013.94
2022-10-31T03:37:20.332Z,1013.97
2022-10-31T03:38:20.323Z,1014.00
2022-10-31T03:39:20.311Z,1014.03
2022-10-31T03:40:20.327Z,1014.00
2022-10-31T03:41:20.288Z,1014.02
2022-10-31T03:42:20.270Z,1014.00
2022-10-31T03:43:20.267Z,1013.98
2022-10-31T03:44:20.248Z,1014.05
2022-10-31T03:45:20.247Z,1014.08
2022-10-31T03:46:20.259Z,1014.05
2022-10-31T03:47:20.221Z,1014.04
2022-10-31T03:48:20.208Z,1014.03
2022-10-31T03:49:20.200Z,1014.00
2022-10-31T03:50:20.184Z,1014.04
2022-10-31T03:51:20.196Z,1014.01
2022-10-31T03:52:20.175Z,1014.05
2022-10-31T03:53:20.186Z,1014.06
2022-10-31T03:54:20.184Z,1014.06
2022-10-31T03:55:20.139Z,1014.08
2022-10-31T03:56:20.120Z,1014.09
2022-10-31T03:57:20.128Z,1014.12
2022-10-31T03:59:20.091Z,1014.12
2022-10-31T04:00:20.094Z,1014.08
2022-10-31T04:01:20.268Z,1014.07
2022-10-31T04:02:20.306Z,1014.10
2022-10-31T04:03:20.044Z,1014.07
2022-10-31T04:04:20.027Z,1014.08
2022-10-31T04:05:20.033Z,1014.09
2022-10-31T04:06:20.034Z,1014.09
2022-10-31T04:07:20.018Z,1014.07
2022-10-31T04:08:19.987Z,1014.07
2022-10-31T04:09:19.976Z,1014.06
2022-10-31T04:10:19.981Z,1014.11
2022-10-31T04:11:19.980Z,1014.13
2022-10-31T04:12:19.964Z,1014.06
2022-10-31T04:14:19.920Z,1014.12
2022-10-31T04:15:19.910Z,1014.15
2022-10-31T04:16:19.923Z,1014.13
2022-10-31T04:17:19.918Z,1014.17
2022-10-31T04:18:19.887Z,1014.15
2022-10-31T04:19:19.873Z,1014.13
2022-10-31T04:20:19.861Z,1014.16
2022-10-31T04:21:19.849Z,1014.14
2022-10-31T04:22:19.838Z,1014.19
2022-10-31T04:23:19.859Z,1014.16
2022-10-31T04:24:19.821Z,1014.17
2022-10-31T04:25:19.799Z,1014.17
2022-10-31T04:26:19.789Z,1014.18
2022-10-31T04:27:19.806Z,1014.17
2022-10-31T04:29:19.824Z,1014.20
2022-10-31T04:30:19.758Z,1014.22
2022-10-31T04:31:19.743Z,1014.24
2022-10-31T04:32:19.724Z,1014.25
2022-10-31T04:33:19.751Z,1014.24
2022-10-31T04:34:19.712Z,1014.23
2022-10-31T04:35:19.696Z,1014.24
2022-10-31T04:36:19.682Z,1014.27
2022-10-31T04:37:19.677Z,1014.28
2022-10-31T04:38:19.670Z,1014.30
2022-10-31T04:39:24.133Z,1014.28
2022-10-31T04:40:20.646Z,1014.26
2022-10-31T04:41:19.637Z,1014.28
2022-10-31T04:42:19.622Z,1014.31
2022-10-31T04:44:19.634Z,1014.30
2022-10-31T04:45:21.282Z,1014.31
2022-10-31T04:46:19.585Z,1014.32
2022-10-31T04:47:19.564Z,1014.28
2022-10-31T04:48:19.559Z,1014.31
2022-10-31T04:49:19.547Z,1014.27
2022-10-31T04:50:19.605Z,1014.27
2022-10-31T04:51:19.532Z,1014.26
2022-10-31T04:52:19.513Z,1014.29
2022-10-31T04:53:19.499Z,1014.29
2022-10-31T04:54:19.487Z,1014.32
2022-10-31T04:55:19.515Z,1014.30
2022-10-31T04:56:19.479Z,1014.29
2022-10-31T04:57:19.471Z,1014.28
2022-10-31T04:58:19.454Z,1014.27
2022-10-31T04:59:19.432Z,1014.26
2022-10-31T05:00:19.425Z,1014.25
2022-10-31T05:01:19.627Z,1014.28
2022-10-31T05:02:19.497Z,1014.25
2022-10-31T05:03:19.388Z,1014.25
2022-10-31T05:04:19.375Z,1014.29
2022-10-31T05:05:19.377Z,1014.32
2022-10-31T05:06:19.378Z,1014.32
2022-10-31T05:07:19.344Z,1014.32
2022-10-31T05:08:19.361Z,1014.35
2022-10-31T05:09:19.321Z,1014.37
2022-10-31T05:10:19.340Z,1014.37
2022-10-31T05:11:19.327Z,1014.34
2022-10-31T05:12:19.314Z,1014.37
2022-10-31T05:13:19.284Z,1014.35
2022-10-31T05:14:19.288Z,1014.39
2022-10-31T05:15:19.272Z,1014.36
2022-10-31T05:16:19.250Z,1014.36
2022-10-31T05:17:19.262Z,1014.35
2022-10-31T05:18:19.242Z,1014.36
2022-10-31T05:19:19.225Z,1014.41
2022-10-31T05:20:19.210Z,1014.35
2022-10-31T05:21:19.202Z,1014.40
2022-10-31T05:22:19.194Z,1014.38
2022-10-31T05:23:19.185Z,1014.38
2022-10-31T05:24:19.166Z,1014.41
2022-10-31T05:25:19.175Z,1014.43
2022-10-31T05:26:19.146Z,1014.39
2022-10-31T05:27:19.141Z,1014.41
2022-10-31T05:28:19.124Z,1014.43
2022-10-31T05:29:19.105Z,1014.45
2022-10-31T05:30:19.115Z,1014.45
2022-10-31T05:31:19.080Z,1014.47
2022-10-31T05:32:19.078Z,1014.48
2022-10-31T05:33:19.069Z,1014.47
2022-10-31T05:34:19.060Z,1014.50
2022-10-31T05:35:19.045Z,1014.48
2022-10-31T05:36:19.067Z,1014.47
2022-10-31T05:37:19.020Z,1014.48
2022-10-31T05:38:19.012Z,1014.48
2022-10-31T05:39:18.999Z,1014.45
2022-10-31T05:40:18.981Z,1014.47
2022-10-31T05:41:18.972Z,1014.46
2022-10-31T05:42:18.980Z,1014.48
2022-10-31T05:43:18.979Z,1014.42
2022-10-31T05:44:18.945Z,1014.48
2022-10-31T05:45:18.935Z,1014.49
2022-10-31T05:46:18.942Z,1014.51
2022-10-31T05:47:18.916Z,1014.54
2022-10-31T05:48:18.902Z,1014.51
2022-10-31T05:49:18.892Z,1014.52
2022-10-31T05:50:18.874Z,1014.55
2022-10-31T05:51:18.884Z,1014.51
2022-10-31T05:52:18.877Z,1014.57
2022-10-31T05:53:18.841Z,1014.56
2022-10-31T05:54:18.829Z,1014.55
2022-10-31T05:55:18.826Z,1014.57
2022-10-31T05:56:18.815Z,1014.52
2022-10-31T05:57:18.795Z,1014.58
2022-10-31T05:58:18.800Z,1014.58
2022-10-31T05:59:18.789Z,1014.69
2022-10-31T06:00:18.771Z,1014.68
2022-10-31T06:01:18.790Z,1014.66
2022-10-31T06:02:18.745Z,1014.68
2022-10-31T06:03:18.753Z,1014.70
2022-10-31T06:04:18.803Z,1014.70
2022-10-31T06:05:18.715Z,1014.68
2022-10-31T06:06:18.696Z,1014.67
2022-10-31T06:07:18.699Z,1014.61
2022-10-31T06:08:18.686Z,1014.63
2022-10-31T06:09:18.679Z,1014.64
2022-10-31T06:10:18.656Z,1014.66
2022-10-31T06:11:18.651Z,1014.68
2022-10-31T06:12:18.643Z,1014.69
2022-10-31T06:13:18.636Z,1014.65
2022-10-31T06:14:18.633Z,1014.65
2022-10-31T06:15:23.513Z,1014.71
2022-10-31T06:16:19.599Z,1014.68
2022-10-31T06:17:18.579Z,1014.66
2022-10-31T06:18:18.577Z,1014.66
2022-10-31T06:19:18.580Z,1014.68
2022-10-31T06:20:18.547Z,1014.69
2022-10-31T06:21:19.244Z,1014.69
2022-10-31T06:22:18.531Z,1014.67
2022-10-31T06:23:18.542Z,1014.66
2022-10-31T06:24:18.523Z,1014.68
2022-10-31T06:25:18.519Z,1014.67
2022-10-31T06:26:18.486Z,1014.65
2022-10-31T06:27:18.469Z,1014.64
2022-10-31T06:28:18.467Z,1014.67
2022-10-31T06:29:18.454Z,1014.68
2022-10-31T06:30:18.432Z,1014.71
2022-10-31T06:31:18.461Z,1014.72
2022-10-31T06:32:18.424Z,1014.74
2022-10-31T06:33:18.422Z,1014.74
2022-10-31T06:34:18.394Z,1014.81
2022-10-31T06:35:18.393Z,1014.81
2022-10-31T06:36:18.429Z,1014.82
2022-10-31T06:37:18.361Z,1014.84
2022-10-31T06:38:18.354Z,1014.87
2022-10-31T06:39:18.337Z,1014.89
2022-10-31T06:40:18.335Z,1014.90
2022-10-31T06:41:18.335Z,1014.93
2022-10-31T06:42:18.317Z,1014.93
2022-10-31T06:43:18.294Z,1014.93
2022-10-31T06:44:18.292Z,1014.96
2022-10-31T06:45:18.274Z,1014.95
2022-10-31T06:46:18.272Z,1015.02
2022-10-31T06:47:18.296Z,1014.99
2022-10-31T06:48:18.792Z,1015.00
2022-10-31T06:49:18.234Z,1014.99
2022-10-31T06:50:18.349Z,1015.02
2022-10-31T06:51:18.212Z,1015.01
2022-10-31T06:52:18.205Z,1015.04
2022-10-31T06:53:18.205Z,1015.01
2022-10-31T06:54:18.182Z,1015.02
2022-10-31T06:55:18.171Z,1015.03
2022-10-31T06:56:18.163Z,1015.01
2022-10-31T06:57:18.155Z,1015.03
2022-10-31T06:58:18.159Z,1014.94
2022-10-31T06:59:18.140Z,1015.01
2022-10-31T07:00:18.112Z,1015.13
2022-10-31T07:01:18.230Z,1015.19
2022-10-31T07:02:18.165Z,1015.10
2022-10-31T07:03:18.123Z,1015.13
2022-10-31T07:04:18.088Z,1015.11
2022-10-31T07:05:18.063Z,1015.13
2022-10-31T07:06:18.054Z,1015.13
2022-10-31T07:07:18.045Z,1015.12
2022-10-31T07:08:18.044Z,1015.16
2022-10-31T07:09:18.013Z,1015.18
2022-10-31T07:10:18.003Z,1015.22
2022-10-31T07:11:18.000Z,1015.18
2022-10-31T07:12:18.008Z,1015.19
2022-10-31T07:13:17.984Z,1015.19
2022-10-31T07:14:17.971Z,1015.17
2022-10-31T07:15:17.954Z,1015.20
2022-10-31T07:16:17.940Z,1015.23
2022-10-31T07:17:17.932Z,1015.27
2022-10-31T07:18:17.942Z,1015.21
2022-10-31T07:19:17.935Z,1015.23
2022-10-31T07:20:17.898Z,1015.25
2022-10-31T07:21:17.892Z,1015.22
2022-10-31T07:22:17.885Z,1015.22
2022-10-31T07:23:17.880Z,1015.26
2022-10-31T07:24:17.850Z,1015.24
2022-10-31T07:25:17.852Z,1015.22
2022-10-31T07:26:17.824Z,1015.23
2022-10-31T07:27:17.836Z,1015.25
2022-10-31T07:28:17.822Z,1015.27
2022-10-31T07:29:17.811Z,1015.18
2022-10-31T07:30:17.807Z,1015.17
2022-10-31T07:31:17.805Z,1015.18
2022-10-31T07:32:17.776Z,1015.20
2022-10-31T07:33:17.764Z,1015.22
2022-10-31T07:34:17.761Z,1015.25
2022-10-31T07:35:17.744Z,1015.20
2022-10-31T07:36:17.726Z,1015.23
2022-10-31T07:37:17.708Z,1015.22
2022-10-31T07:38:17.723Z,1015.27
2022-10-31T07:39:17.755Z,1015.27
2022-10-31T07:40:17.691Z,1015.29
2022-10-31T07:41:17.693Z,1015.28
2022-10-31T07:42:17.668Z,1015.32
2022-10-31T07:43:17.680Z,1015.35
2022-10-31T07:44:17.638Z,1015.36
2022-10-31T07:45:17.634Z,1015.33
2022-10-31T07:46:17.617Z,1015.39
2022-10-31T07:47:17.623Z,1015.36
2022-10-31T07:48:17.634Z,1015.32
2022-10-31T07:49:17.592Z,1015.33
2022-10-31T07:50:17.729Z,1015.34
2022-10-31T07:51:17.573Z,1015.36
2022-10-31T07:52:17.557Z,1015.36
2022-10-31T07:53:17.646Z,1015.36
2022-10-31T07:54:17.554Z,1015.41
2022-10-31T07:55:17.522Z,1015.43
2022-10-31T07:56:17.528Z,1015.48
2022-10-31T07:57:20.254Z,1015.50
2022-10-31T07:58:17.503Z,1015.51
2022-10-31T07:59:17.484Z,1015.51
2022-10-31T08:00:17.469Z,1015.55
2022-10-31T08:01:17.457Z,1015.59
2022-10-31T08:02:17.446Z,1015.57
2022-10-31T08:03:17.431Z,1015.56
2022-10-31T08:04:17.429Z,1015.57
2022-10-31T08:05:17.420Z,1015.55
2022-10-31T08:06:17.398Z,1015.56
2022-10-31T08:07:17.417Z,1015.54
2022-10-31T08:08:17.551Z,1015.53
2022-10-31T08:09:17.372Z,1015.56
2022-10-31T08:10:17.375Z,1015.55
2022-10-31T08:11:17.343Z,1015.57
2022-10-31T08:12:17.348Z,1015.54
2022-10-31T08:13:17.328Z,1015.55
2022-10-31T08:14:17.301Z,1015.53
2022-10-31T08:15:17.298Z,1015.52
2022-10-31T08:16:17.297Z,1015.52
2022-10-31T08:17:17.274Z,1015.52
2022-10-31T08:18:17.260Z,1015.53
2022-10-31T08:19:17.260Z,1015.51
2022-10-31T08:20:17.237Z,1015.52
2022-10-31T08:21:17.252Z,1015.58
2022-10-31T08:22:17.215Z,1015.56
2022-10-31T08:23:17.228Z,1015.54
2022-10-31T08:24:17.216Z,1015.62
2022-10-31T08:25:17.192Z,1015.60
2022-10-31T08:26:17.189Z,1015.63
2022-10-31T08:27:17.193Z,1015.70
2022-10-31T08:28:17.154Z,1015.72
2022-10-31T08:29:17.144Z,1015.72
2022-10-31T08:30:17.134Z,1015.74
2022-10-31T08:31:17.174Z,1015.72
2022-10-31T08:32:17.107Z,1015.67
2022-10-31T08:33:17.119Z,1015.66
2022-10-31T08:34:17.099Z,1015.69
2022-10-31T08:35:17.088Z,1015.67
2022-10-31T08:36:17.070Z,1015.70
2022-10-31T08:37:17.124Z,1015.70
2022-10-31T08:38:17.094Z,1015.69
2022-10-31T08:39:17.046Z,1015.70
2022-10-31T08:40:17.032Z,1015.68
2022-10-31T08:41:17.018Z,1015.68
2022-10-31T08:42:17.008Z,1015.69
2022-10-31T08:43:17.008Z,1015.64
2022-10-31T08:44:16.986Z,1015.60
2022-10-31T08:45:16.981Z,1015.60
2022-10-31T08:46:16.962Z,1015.58
2022-10-31T08:47:16.965Z,1015.59
2022-10-31T08:48:16.937Z,1015.58
2022-10-31T08:49:16.932Z,1015.56
2022-10-31T08:50:16.925Z,1015.56
2022-10-31T08:51:16.907Z,1015.59
2022-10-31T08:52:16.891Z,1015.56
2022-10-31T08:53:16.895Z,1015.60
2022-10-31T08:54:16.875Z,1015.62
2022-10-31T08:55:16.885Z,1015.65
2022-10-31T08:56:16.847Z,1015.60
2022-10-31T08:57:16.872Z,1015.61
2022-10-31T08:58:16.833Z,1015.65
2022-10-31T08:59:16.814Z,1015.62
2022-10-31T09:00:16.827Z,1015.64
2022-10-31T09:01:17.005Z,1015.65
2022-10-31T09:02:16.812Z,1015.70
2022-10-31T09:03:16.794Z,1015.70
2022-10-31T09:04:16.756Z,1015.69
2022-10-31T09:05:16.759Z,1015.73
2022-10-31T09:06:16.859Z,1015.68
2022-10-31T09:07:20.929Z,1015.76
2022-10-31T09:08:17.308Z,1015.72
2022-10-31T09:09:16.702Z,1015.73
2022-10-31T09:10:16.696Z,1015.70
2022-10-31T09:11:16.714Z,1015.66
2022-10-31T09:12:16.670Z,1015.69
2022-10-31T09:13:16.662Z,1015.70
2022-10-31T09:14:16.654Z,1015.76
2022-10-31T09:15:16.658Z,1015.80
2022-10-31T09:16:16.640Z,1015.77
2022-10-31T09:17:16.629Z,1015.79
2022-10-31T09:18:16.605Z,1015.79
2022-10-31T09:19:16.598Z,1015.80
2022-10-31T09:20:16.597Z,1015.80
2022-10-31T09:21:16.569Z,1015.80
2022-10-31T09:22:16.580Z,1015.80
2022-10-31T09:23:16.557Z,1015.81
2022-10-31T09:24:16.547Z,1015.84
2022-10-31T09:25:16.536Z,1015.84
2022-10-31T09:26:16.521Z,1015.83
2022-10-31T09:27:16.592Z,1015.82
2022-10-31T09:28:16.519Z,1015.86
2022-10-31T09:29:16.489Z,1015.89
2022-10-31T09:30:16.492Z,1015.92
2022-10-31T09:31:16.464Z,1015.93
2022-10-31T09:32:16.451Z,1015.90
2022-10-31T09:33:16.465Z,1015.93
2022-10-31T09:34:16.420Z,1015.86
2022-10-31T09:35:18.190Z,1015.89
2022-10-31T09:36:16.421Z,1015.86
2022-10-31T09:37:16.404Z,1015.84
2022-10-31T09:38:16.404Z,1015.84
2022-10-31T09:39:16.389Z,1015.85
2022-10-31T09:40:16.359Z,1015.93
2022-10-31T09:41:16.379Z,1015.93
2022-10-31T09:42:16.336Z,1015.98
2022-10-31T09:43:16.342Z,1015.94
2022-10-31T09:44:16.318Z,1015.99
2022-10-31T09:45:16.324Z,1016.04
2022-10-31T09:46:16.310Z,1016.04
2022-10-31T09:47:16.297Z,1015.99
2022-10-31T09:48:16.278Z,1016.02
2022-10-31T09:49:16.277Z,1016.05
2022-10-31T09:50:16.256Z,1016.05
2022-10-31T09:51:16.277Z,1016.08
2022-10-31T09:52:16.248Z,1016.02
2022-10-31T09:53:16.219Z,1016.07
2022-10-31T09:54:16.204Z,1016.09
2022-10-31T09:55:16.202Z,1016.04
2022-10-31T09:56:16.212Z,1016.09
2022-10-31T09:57:16.213Z,1016.04
2022-10-31T09:58:16.169Z,1016.07
2022-10-31T09:59:16.188Z,1016.04
2022-10-31T10:00:16.151Z,1016.02
2022-10-31T10:01:16.191Z,1015.99
2022-10-31T10:02:16.144Z,1015.94
2022-10-31T10:03:16.141Z,1015.98
2022-10-31T10:04:19.828Z,1015.97
2022-10-31T10:05:16.090Z,1015.99
2022-10-31T10:06:16.082Z,1015.98
2022-10-31T10:07:16.065Z,1015.96
2022-10-31T10:08:16.055Z,1015.97
2022-10-31T10:09:16.105Z,1015.98
2022-10-31T10:10:16.045Z,1016.02
2022-10-31T10:11:16.018Z,1015.99
2022-10-31T10:12:16.010Z,1015.99
2022-10-31T10:13:16.010Z,1015.99
2022-10-31T10:14:15.997Z,1015.94
2022-10-31T10:15:15.991Z,1015.92
2022-10-31T10:16:15.959Z,1015.90
2022-10-31T10:17:15.954Z,1015.89
2022-10-31T10:18:15.949Z,1015.86
2022-10-31T10:19:15.957Z,1015.81
2022-10-31T10:20:19.809Z,1015.78
2022-10-31T10:21:16.915Z,1015.79
2022-10-31T10:22:15.904Z,1015.79
2022-10-31T10:23:15.923Z,1015.79
2022-10-31T10:24:15.882Z,1015.79
2022-10-31T10:25:15.874Z,1015.78
2022-10-31T10:26:15.875Z,1015.77
2022-10-31T10:27:18.005Z,1015.82
2022-10-31T10:28:15.834Z,1015.79
2022-10-31T10:29:15.815Z,1015.79
2022-10-31T10:30:15.808Z,1015.81
2022-10-31T10:31:15.837Z,1015.79
2022-10-31T10:32:15.816Z,1015.79
2022-10-31T10:33:15.776Z,1015.79
2022-10-31T10:34:15.766Z,1015.76
2022-10-31T10:35:15.765Z,1015.76
2022-10-31T10:36:15.762Z,1015.73
2022-10-31T10:37:15.754Z,1015.71
2022-10-31T10:38:15.740Z,1015.69
2022-10-31T10:39:15.756Z,1015.70
2022-10-31T10:40:15.746Z,1015.74
2022-10-31T10:41:15.702Z,1015.74
2022-10-31T10:42:15.674Z,1015.68
2022-10-31T10:43:15.679Z,1015.67
2022-10-31T10:44:15.664Z,1015.63
2022-10-31T10:45:15.668Z,1015.61
2022-10-31T10:46:15.636Z,1015.65
2022-10-31T10:47:15.645Z,1015.61
2022-10-31T10:48:15.630Z,1015.64
2022-10-31T10:49:15.640Z,1015.63
2022-10-31T10:50:15.592Z,1015.65
2022-10-31T10:51:25.752Z,1015.61
2022-10-31T10:52:39.763Z,1015.63
2022-10-31T10:53:16.571Z,1015.66
2022-10-31T10:54:15.553Z,1015.64
2022-10-31T10:55:15.559Z,1015.62
2022-10-31T10:56:15.523Z,1015.66
2022-10-31T10:57:15.522Z,1015.63
2022-10-31T10:58:15.538Z,1015.64
2022-10-31T10:59:15.487Z,1015.67
2022-10-31T11:00:15.502Z,1015.66
2022-10-31T11:02:15.500Z,1015.62
2022-10-31T11:03:15.501Z,1015.62
2022-10-31T11:04:15.444Z,1015.63
2022-10-31T11:05:15.429Z,1015.63
2022-10-31T11:06:15.436Z,1015.60
2022-10-31T11:07:15.406Z,1015.63
2022-10-31T11:08:15.414Z,1015.61
2022-10-31T11:09:15.402Z,1015.59
2022-10-31T11:10:15.367Z,1015.59
2022-10-31T11:11:15.372Z,1015.56
2022-10-31T11:12:15.401Z,1015.58
2022-10-31T11:13:15.350Z,1015.55
2022-10-31T11:14:15.324Z,1015.57
2022-10-31T11:15:15.346Z,1015.56
2022-10-31T11:16:15.327Z,1015.55
2022-10-31T11:17:15.299Z,1015.60
2022-10-31T11:18:15.319Z,1015.54
2022-10-31T11:19:15.312Z,1015.51
2022-10-31T11:20:18.135Z,1015.46
2022-10-31T11:21:15.259Z,1015.46
2022-10-31T11:22:15.246Z,1015.48
2022-10-31T11:23:15.246Z,1015.48
2022-10-31T11:24:15.217Z,1015.47
2022-10-31T11:25:15.228Z,1015.45
2022-10-31T11:26:15.196Z,1015.49
2022-10-31T11:27:15.194Z,1015.46
2022-10-31T11:28:15.187Z,1015.44
2022-10-31T11:29:15.183Z,1015.47
2022-10-31T11:30:15.162Z,1015.46
2022-10-31T11:31:15.176Z,1015.44
2022-10-31T11:32:15.140Z,1015.45
2022-10-31T11:33:15.124Z,1015.40
2022-10-31T11:34:15.114Z,1015.43
2022-10-31T11:35:15.114Z,1015.43
2022-10-31T11:36:15.111Z,1015.41
2022-10-31T11:37:15.102Z,1015.49
2022-10-31T11:38:15.083Z,1015.42
2022-10-31T11:39:15.055Z,1015.47
2022-10-31T11:40:15.059Z,1015.44
2022-10-31T11:41:15.039Z,1015.40
2022-10-31T11:42:15.049Z,1015.38
2022-10-31T11:43:15.009Z,1015.39
2022-10-31T11:44:15.059Z,1015.37
2022-10-31T11:45:15.005Z,1015.39
2022-10-31T11:46:15.007Z,1015.39
2022-10-31T11:47:14.964Z,1015.38
2022-10-31T11:48:14.951Z,1015.43
2022-10-31T11:49:14.943Z,1015.46
2022-10-31T11:50:14.939Z,1015.46
2022-10-31T11:51:14.933Z,1015.46
2022-10-31T11:52:14.926Z,1015.45
2022-10-31T11:53:14.911Z,1015.46
2022-10-31T11:54:14.892Z,1015.44
2022-10-31T11:55:14.873Z,1015.43
2022-10-31T11:56:14.876Z,1015.36
2022-10-31T11:57:14.864Z,1015.40
2022-10-31T11:58:14.875Z,1015.40
2022-10-31T11:59:14.835Z,1015.40
2022-10-31T12:00:14.913Z,1015.39
2022-10-31T12:01:14.860Z,1015.37
2022-10-31T12:02:14.991Z,1015.33
2022-10-31T12:03:14.789Z,1015.35
2022-10-31T12:04:14.778Z,1015.32
2022-10-31T12:05:14.770Z,1015.32
2022-10-31T12:06:14.770Z,1015.30
2022-10-31T12:07:14.767Z,1015.30
2022-10-31T12:08:14.760Z,1015.31
2022-10-31T12:09:14.780Z,1015.32
2022-10-31T12:10:14.722Z,1015.33
2022-10-31T12:11:14.702Z,1015.30
2022-10-31T12:12:14.709Z,1015.31
2022-10-31T12:13:14.685Z,1015.30